Time;durP1;ratioP1;P1;durP2;ratioP2;P2;SDS_P1;SDS_P2;PMS_P1;PMS_P2;Temp;Humidity;BMP_temperature;BMP_pressure;BME280_temperature;BME280_humidity;BME280_pressure;Samples;Min_cycle;Max_cycle;Signal;HPM_P1;HPM_P2
2022/02/03 00:00:42;;;;;;;8.97;3.63;;;4.10;99.90;;;;;;4972575;28;20249;-56
2022/02/03 00:10:49;;;;;;;8.13;3.50;;;4.00;99.90;;;;;;4972360;28;20543;-54
2022/02/03 00:24:35;;;;;;;6.27;3.50;;;3.60;99.90;;;;;;4976003;28;20194;-59
2022/02/03 00:27:14;;;;;;;9.30;4.10;;;3.50;99.90;;;;;;4975892;28;20169;-56
2022/02/03 00:32:38;;;;;;;7.30;3.90;;;3.60;99.90;;;;;;4976009;28;20174;-57
2022/02/03 00:38:01;;;;;;;9.07;4.37;;;3.90;99.90;;;;;;4975696;28;20221;-53
2022/02/03 00:49:09;;;;;;;12.10;4.40;;;4.80;99.90;;;;;;4975721;28;20252;-52
2022/02/03 00:51:33;;;;;;;4.97;3.27;;;4.90;99.90;;;;;;4974925;28;20197;-55
2022/02/03 00:53:59;;;;;;;10.90;4.10;;;4.90;99.90;;;;;;4975390;28;20197;-53
2022/02/03 00:56:36;;;;;;;8.33;3.70;;;4.80;99.90;;;;;;4957756;28;20189;-57
2022/02/03 00:59:18;;;;;;;7.53;3.50;;;4.60;99.90;;;;;;4975200;28;20173;-57
2022/02/03 01:01:50;;;;;;;9.67;4.30;;;4.60;99.90;;;;;;4975348;28;20703;-54
2022/02/03 01:04:16;;;;;;;7.10;3.83;;;4.70;99.90;;;;;;4975227;28;20317;-53
2022/02/03 01:06:53;;;;;;;8.03;3.60;;;4.70;99.90;;;;;;4975000;28;20778;-53
2022/02/03 01:09:22;;;;;;;10.90;4.07;;;4.80;99.90;;;;;;4975062;28;20598;-54
2022/02/03 01:11:53;;;;;;;7.97;3.87;;;4.80;99.90;;;;;;4975190;28;20188;-55
2022/02/03 01:14:39;;;;;;;10.50;4.00;;;4.80;99.90;;;;;;4975109;28;20194;-55
2022/02/03 01:17:29;;;;;;;7.13;3.87;;;4.90;99.90;;;;;;4974897;28;20237;-57
2022/02/03 01:45:05;;;;;;;8.03;3.70;;;3.90;99.90;;;;;;4933870;29;20239;-53
2022/02/03 01:52:42;;;;;;;12.47;4.27;;;3.90;99.90;;;;;;4933418;29;20175;-54
2022/02/03 01:55:27;;;;;;;10.87;4.17;;;4.00;99.90;;;;;;4933404;29;20246;-54
2022/02/03 01:58:04;;;;;;;6.80;3.67;;;4.20;99.90;;;;;;4933482;29;20297;-59
2022/02/03 02:00:39;;;;;;;9.87;3.77;;;4.40;99.90;;;;;;4933470;29;20727;-54
2022/02/03 02:03:10;;;;;;;9.80;4.23;;;4.40;99.90;;;;;;4933470;29;20221;-53
2022/02/03 02:05:54;;;;;;;8.27;4.10;;;4.50;99.90;;;;;;4933171;29;20175;-55
2022/02/03 02:08:54;;;;;;;9.63;4.33;;;4.50;99.90;;;;;;4933385;29;20179;-55
2022/02/03 02:11:56;;;;;;;9.97;4.40;;;4.50;99.90;;;;;;4933309;29;20187;-55
2022/02/03 02:39:50;;;;;;;11.33;4.73;;;4.70;99.90;;;;;;4973759;28;20205;-55
2022/02/03 02:45:07;;;;;;;9.97;4.50;;;4.80;99.90;;;;;;4973293;28;20193;-56
2022/02/03 02:48:07;;;;;;;8.60;4.50;;;4.90;99.90;;;;;;4973434;28;20180;-56
2022/02/03 02:51:02;;;;;;;8.47;4.27;;;4.90;99.90;;;;;;4973432;28;20197;-57
2022/02/03 02:53:55;;;;;;;9.37;4.53;;;4.90;99.90;;;;;;4972984;28;20756;-57
2022/02/03 03:30:42;;;;;;;7.90;4.17;;;4.40;99.90;;;;;;4919737;28;20200;-56
2022/02/03 03:36:05;;;;;;;9.13;4.50;;;4.20;99.90;;;;;;4973185;28;20182;-55
2022/02/03 03:38:34;;;;;;;6.80;4.73;;;4.10;99.90;;;;;;4972734;28;20217;-55
2022/02/03 03:41:02;;;;;;;9.90;4.33;;;4.10;99.90;;;;;;4972782;28;20174;-56
2022/02/03 03:43:44;;;;;;;10.07;4.63;;;4.20;99.90;;;;;;4972800;28;20280;-55
2022/02/03 03:46:25;;;;;;;10.03;5.00;;;4.20;99.90;;;;;;4973340;28;20249;-56
2022/02/03 03:49:20;;;;;;;9.23;5.43;;;4.30;99.90;;;;;;4976455;28;20173;-56
2022/02/03 03:51:56;;;;;;;10.33;5.27;;;4.50;99.90;;;;;;4976609;28;20252;-56
2022/02/03 03:54:46;;;;;;;7.83;4.97;;;4.60;99.90;;;;;;4976494;28;20262;-56
2022/02/03 04:32:50;;;;;;;10.47;5.80;;;4.20;99.90;;;;;;4897109;29;20283;-52
2022/02/03 04:36:33;;;;;;;12.20;5.67;;;4.10;99.90;;;;;;4897087;29;20200;-51
2022/02/03 04:44:47;;;;;;;11.50;5.57;;;3.80;99.90;;;;;;4897365;29;20234;-55
2022/02/03 05:02:45;;;;;;;13.83;5.97;;;3.80;99.90;;;;;;4880904;29;20185;-53
2022/02/03 05:11:29;;;;;;;10.73;5.10;;;4.00;99.90;;;;;;4975462;28;20182;-56
2022/02/03 05:26:58;;;;;;;9.80;7.10;;;4.40;99.90;;;;;;4877583;29;20217;-54
2022/02/03 05:45:03;;;;;;;12.00;5.80;;;4.70;99.90;;;;;;4856590;29;20228;-52
2022/02/03 06:03:48;;;;;;;11.23;5.97;;;5.00;99.90;;;;;;4974224;28;20575;-56
2022/02/03 06:09:25;;;;;;;11.50;6.13;;;5.00;99.90;;;;;;4974081;28;20602;-58
2022/02/03 06:14:37;;;;;;;13.10;6.50;;;5.00;99.90;;;;;;4974056;28;20232;-53
2022/02/03 06:17:18;;;;;;;10.57;6.20;;;5.00;99.90;;;;;;4973816;28;20564;-53
2022/02/03 06:22:46;;;;;;;10.20;6.30;;;5.10;99.90;;;;;;4974131;28;20702;-55
2022/02/03 06:27:48;;;;;;;10.70;6.03;;;5.00;99.90;;;;;;4973795;28;20663;-53
2022/02/03 06:30:18;;;;;;;13.47;5.67;;;5.00;99.90;;;;;;4973681;28;20650;-54
2022/02/03 06:32:44;;;;;;;12.00;6.17;;;5.00;99.90;;;;;;4973709;28;20190;-58
2022/02/03 06:35:13;;;;;;;11.20;6.17;;;5.00;99.90;;;;;;4973936;28;20659;-56
2022/02/03 06:37:39;;;;;;;10.80;6.33;;;5.00;99.90;;;;;;4973531;28;20197;-56
2022/02/03 06:40:07;;;;;;;10.90;5.83;;;5.00;99.90;;;;;;4973339;28;20173;-53
2022/02/03 06:42:33;;;;;;;12.10;6.00;;;5.00;99.90;;;;;;4973440;28;20170;-56
2022/02/03 06:45:10;;;;;;;10.13;5.83;;;5.10;99.90;;;;;;4973257;28;20252;-55
2022/02/03 06:48:00;;;;;;;11.63;6.83;;;5.10;99.90;;;;;;4973326;28;20256;-54
2022/02/03 06:50:31;;;;;;;12.53;6.27;;;5.10;99.90;;;;;;4973197;28;20635;-53
2022/02/03 06:53:03;;;;;;;14.37;6.50;;;5.10;99.90;;;;;;4973175;28;20674;-57
2022/02/03 06:55:59;;;;;;;11.23;5.80;;;5.00;99.90;;;;;;4973110;28;20265;-55
2022/02/03 06:58:34;;;;;;;11.90;6.40;;;5.00;99.90;;;;;;4972657;28;20760;-57
2022/02/03 07:03:31;;;;;;;11.30;6.57;;;5.10;99.90;;;;;;4973199;28;20189;-52
2022/02/03 07:05:57;;;;;;;12.23;6.07;;;5.10;99.90;;;;;;4972899;28;20170;-52
2022/02/03 07:08:24;;;;;;;10.77;6.37;;;5.10;99.90;;;;;;4972685;28;20196;-54
2022/02/03 07:10:52;;;;;;;12.03;7.20;;;5.20;99.90;;;;;;4973144;28;20276;-55
2022/02/03 07:13:18;;;;;;;12.03;6.43;;;5.30;99.90;;;;;;4972980;28;20792;-55
2022/02/03 07:15:44;;;;;;;11.83;6.50;;;5.40;99.90;;;;;;4972823;28;20177;-51
2022/02/03 07:18:09;;;;;;;11.97;6.67;;;5.50;99.90;;;;;;4972809;28;20671;-56
2022/02/03 07:20:35;;;;;;;11.87;6.40;;;5.50;99.90;;;;;;4973102;28;20708;-57
2022/02/03 07:23:03;;;;;;;13.13;6.80;;;5.50;99.90;;;;;;4979210;28;20237;-57
2022/02/03 07:25:30;;;;;;;12.00;6.20;;;5.50;99.90;;;;;;4979153;28;20169;-56
2022/02/03 07:27:56;;;;;;;11.10;6.83;;;5.50;99.90;;;;;;4979063;28;20544;-53
2022/02/03 07:30:22;;;;;;;12.43;6.63;;;5.50;99.90;;;;;;4979127;28;20165;-51
2022/02/03 07:32:54;;;;;;;11.10;6.73;;;5.60;99.90;;;;;;4979160;28;20192;-54
2022/02/03 07:35:19;;;;;;;10.40;6.43;;;5.50;99.90;;;;;;4979052;28;20169;-54
2022/02/03 07:37:47;;;;;;;13.73;6.90;;;5.50;99.90;;;;;;4979184;28;20251;-57
2022/02/03 07:40:14;;;;;;;11.93;6.73;;;5.60;99.90;;;;;;4978533;28;20682;-52
2022/02/03 07:42:40;;;;;;;13.23;6.53;;;5.80;99.90;;;;;;4979073;28;20657;-52
2022/02/03 07:45:07;;;;;;;9.40;5.90;;;6.30;99.90;;;;;;4979048;28;20166;-55
2022/02/03 07:47:32;;;;;;;10.63;5.73;;;7.10;99.90;;;;;;4961932;28;20185;-57
2022/02/03 07:49:58;;;;;;;11.37;6.57;;;7.70;99.90;;;;;;4979100;28;20174;-56
2022/02/03 07:52:23;;;;;;;9.40;5.70;;;8.00;99.90;;;;;;4979193;28;20260;-56
2022/02/03 07:54:49;;;;;;;13.17;6.47;;;8.20;99.90;;;;;;4979011;28;20232;-55
2022/02/03 07:57:15;;;;;;;10.40;6.17;;;8.50;99.90;;;;;;4978893;28;20608;-53
2022/02/03 07:59:40;;;;;;;9.83;5.87;;;8.70;99.90;;;;;;4978748;28;20174;-54
2022/02/03 08:02:07;;;;;;;10.40;6.00;;;9.10;99.90;;;;;;4978799;28;20178;-57
2022/02/03 08:04:38;;;;;;;9.97;6.17;;;9.50;99.90;;;;;;4978825;28;20624;-56
2022/02/03 08:07:04;;;;;;;12.43;5.93;;;9.80;99.90;;;;;;4978945;28;20598;-59
2022/02/03 08:09:41;;;;;;;9.00;5.97;;;10.10;99.90;;;;;;4978806;28;20181;-56
2022/02/03 08:12:10;;;;;;;9.97;6.00;;;10.10;99.90;;;;;;4979068;28;20173;-55
2022/02/03 08:14:41;;;;;;;9.73;6.07;;;10.10;99.90;;;;;;4978879;28;20291;-52
2022/02/03 08:17:11;;;;;;;12.47;6.80;;;10.10;99.90;;;;;;4979016;28;20205;-55
2022/02/03 08:25:04;;;;;;;15.77;7.93;;;9.40;99.90;;;;;;4918937;29;20306;-55
2022/02/03 08:32:38;;;;;;;12.00;7.27;;;8.70;99.90;;;;;;4917624;29;20666;-56
2022/02/03 08:37:45;;;;;;;14.43;9.03;;;8.60;99.90;;;;;;4916030;29;20303;-55
2022/02/03 08:41:02;;;;;;;15.50;8.70;;;8.60;99.90;;;;;;4916018;29;20176;-55
2022/02/03 08:43:07;;;;;;;12.57;8.37;;;8.60;99.90;;;;;;4910764;29;20635;-54
2022/02/03 08:45:33;;;;;;;13.10;8.37;;;8.80;99.90;;;;;;4915954;29;20176;-57
2022/02/03 08:47:58;;;;;;;13.53;8.50;;;8.90;99.90;;;;;;4915636;29;20183;-58
2022/02/03 08:50:24;;;;;;;16.43;9.03;;;9.20;99.90;;;;;;4915898;29;20184;-56
2022/02/03 08:55:55;;;;;;;14.67;8.63;;;10.60;99.90;;;;;;4915629;29;20227;-56
2022/02/03 09:59:14;;;;;;;17.37;9.57;;;8.00;99.90;;;;;;4974251;28;20181;-54
2022/02/03 10:01:51;;;;;;;21.83;10.07;;;8.10;99.90;;;;;;4974357;28;20178;-54
2022/02/03 10:04:42;;;;;;;15.97;9.03;;;8.10;99.90;;;;;;4974127;28;20709;-55
2022/02/03 10:07:14;;;;;;;16.27;8.70;;;8.10;99.90;;;;;;4974219;28;20195;-55
2022/02/03 10:09:42;;;;;;;17.27;9.33;;;8.80;99.90;;;;;;4974061;28;20195;-54
2022/02/03 10:12:10;;;;;;;17.33;8.80;;;8.00;99.90;;;;;;4974152;28;20551;-54
2022/02/03 10:14:38;;;;;;;15.30;8.70;;;7.90;99.90;;;;;;4973855;28;20819;-52
2022/02/03 10:17:06;;;;;;;15.37;8.40;;;8.00;99.90;;;;;;4974123;28;20235;-57
2022/02/03 10:19:44;;;;;;;14.33;8.23;;;8.00;99.90;;;;;;4973802;28;20175;-51
2022/02/03 10:22:22;;;;;;;17.80;8.47;;;8.00;99.90;;;;;;4973968;28;20582;-52
2022/02/03 10:24:50;;;;;;;15.60;8.30;;;8.20;99.90;;;;;;4973712;28;20209;-53
2022/02/03 10:27:38;;;;;;;15.73;7.93;;;8.40;99.90;;;;;;4974083;28;20698;-52
2022/02/03 10:30:26;;;;;;;16.13;8.17;;;8.50;99.90;;;;;;4973608;28;20224;-52
2022/02/03 10:32:53;;;;;;;17.13;8.63;;;8.60;99.90;;;;;;4973647;28;20537;-53
2022/02/03 10:35:37;;;;;;;13.57;8.13;;;8.70;99.90;;;;;;4973570;28;20185;-54
2022/02/03 11:02:34;;;;;;;15.70;8.43;;;8.30;99.90;;;;;;4973406;28;20173;-55
2022/02/03 11:05:19;;;;;;;16.47;8.23;;;8.10;99.90;;;;;;4973199;28;20186;-52
2022/02/03 11:12:53;;;;;;;15.87;8.63;;;7.90;99.90;;;;;;4973227;28;20180;-54
2022/02/03 11:15:24;;;;;;;15.10;8.40;;;8.10;99.90;;;;;;4972917;28;20555;-51
2022/02/03 11:17:52;;;;;;;16.13;8.40;;;8.30;99.90;;;;;;4973122;28;20204;-53
2022/02/03 11:20:19;;;;;;;13.57;8.13;;;8.40;99.90;;;;;;4973107;28;20170;-51
2022/02/03 11:55:44;;;;;;;14.37;7.90;;;9.30;99.90;;;;;;4972897;28;20194;-56
2022/02/03 12:07:11;;;;;;;14.07;7.80;;;9.20;99.90;;;;;;4972808;28;20257;-56
2022/02/03 12:12:57;;;;;;;13.47;7.33;;;9.70;99.90;;;;;;4976635;28;20186;-57
2022/02/03 12:21:46;;;;;;;14.57;7.70;;;10.30;99.90;;;;;;4880197;29;20197;-56
2022/02/03 12:24:32;;;;;;;12.47;7.17;;;10.30;99.90;;;;;;4897687;29;20547;-52
2022/02/03 12:27:22;;;;;;;11.43;6.93;;;10.30;99.90;;;;;;4897697;29;20184;-56
2022/02/03 12:29:58;;;;;;;13.40;7.30;;;10.20;99.90;;;;;;4897476;29;20188;-56
2022/02/03 12:32:41;;;;;;;12.43;7.60;;;10.30;99.90;;;;;;4897436;29;20239;-53
2022/02/03 12:43:02;;;;;;;13.47;7.80;;;10.50;99.90;;;;;;4896312;29;20566;-55
2022/02/03 12:45:28;;;;;;;12.63;7.27;;;10.60;99.90;;;;;;4896484;29;20184;-55
2022/02/03 12:47:59;;;;;;;13.00;7.00;;;10.60;99.90;;;;;;4895659;29;20211;-52
2022/02/03 12:50:29;;;;;;;11.23;6.97;;;10.50;99.90;;;;;;4975666;28;20550;-57
2022/02/03 12:52:57;;;;;;;10.57;6.20;;;10.50;99.90;;;;;;4975366;28;20181;-56
2022/02/03 12:55:38;;;;;;;10.67;6.53;;;10.80;99.90;;;;;;4975408;28;20170;-52
2022/02/03 12:58:13;;;;;;;13.80;7.50;;;11.50;99.90;;;;;;4975192;28;20233;-57
2022/02/03 13:00:47;;;;;;;10.57;6.13;;;12.50;99.90;;;;;;4975407;28;20187;-55
2022/02/03 13:03:15;;;;;;;8.87;5.93;;;13.30;99.90;;;;;;4975337;28;20209;-56
2022/02/03 13:05:55;;;;;;;8.47;5.50;;;13.60;99.90;;;;;;4975383;28;20186;-57
2022/02/03 13:08:40;;;;;;;12.17;8.30;;;13.80;99.90;;;;;;4975210;28;20264;-57
2022/02/03 13:11:15;;;;;;;8.90;5.53;;;13.90;99.90;;;;;;4975247;28;20174;-54
2022/02/03 13:13:57;;;;;;;9.57;5.67;;;13.80;99.90;;;;;;4975038;28;20287;-56
2022/02/03 13:16:23;;;;;;;9.80;5.57;;;13.70;99.90;;;;;;4975103;28;20180;-53
2022/02/03 13:19:21;;;;;;;10.47;5.60;;;13.40;99.90;;;;;;4974336;28;20745;-51
2022/02/03 13:21:57;;;;;;;9.83;5.10;;;13.30;99.90;;;;;;4975028;28;20178;-55
2022/02/03 13:26:49;;;;;;;10.60;5.87;;;13.30;99.90;;;;;;4975115;28;20202;-57
2022/02/03 13:29:29;;;;;;;9.13;5.07;;;13.70;99.90;;;;;;4974705;28;20171;-56
2022/02/03 13:32:02;;;;;;;8.40;4.70;;;14.30;99.90;;;;;;4974838;28;20648;-56
2022/02/03 13:34:36;;;;;;;10.10;4.87;;;14.50;99.90;;;;;;4974466;28;20241;-56
2022/02/03 13:37:24;;;;;;;6.57;5.03;;;14.60;99.90;;;;;;4974644;28;20177;-56
2022/02/03 13:40:15;;;;;;;8.70;5.17;;;14.30;99.90;;;;;;4974699;28;20170;-54
2022/02/03 13:42:50;;;;;;;16.77;12.77;;;13.80;99.90;;;;;;4974719;28;20177;-53
2022/02/03 13:45:20;;;;;;;7.03;5.30;;;13.30;99.90;;;;;;4974559;28;20173;-59
2022/02/03 13:47:48;;;;;;;10.20;5.60;;;13.00;99.90;;;;;;4974557;28;20180;-55
2022/02/03 13:50:27;;;;;;;7.03;4.80;;;12.80;99.90;;;;;;4974263;28;20263;-54
2022/02/03 13:53:06;;;;;;;10.37;5.20;;;12.70;99.90;;;;;;4974476;28;20306;-53
2022/02/03 14:13:29;;;;;;;8.80;5.23;;;11.40;99.90;;;;;;4974432;28;20233;-57
2022/02/03 14:15:47;;;;;;;10.57;6.83;;;11.10;99.90;;;;;;4973768;28;20209;-57
2022/02/03 14:18:20;;;;;;;8.57;5.40;;;12.40;99.90;;;;;;4973823;28;20201;-55
2022/02/03 14:21:06;;;;;;;9.37;6.20;;;10.80;99.90;;;;;;4974028;28;20180;-55
2022/02/03 14:29:07;;;;;;;10.57;5.60;;;10.30;99.90;;;;;;4973827;28;20188;-53
2022/02/03 14:31:35;;;;;;;9.00;5.07;;;10.10;99.90;;;;;;4973057;28;20181;-53
2022/02/03 14:34:05;;;;;;;8.40;5.27;;;9.90;99.90;;;;;;4973533;28;20214;-54
2022/02/03 14:36:33;;;;;;;9.50;5.23;;;10.90;99.90;;;;;;4973763;28;20681;-55
2022/02/03 14:39:43;;;;;;;9.13;5.17;;;9.80;99.90;;;;;;4973444;28;20210;-55
2022/02/03 14:41:50;;;;;;;10.07;6.00;;;9.80;99.90;;;;;;4971622;28;20249;-55
2022/02/03 14:44:18;;;;;;;11.40;6.43;;;9.80;99.90;;;;;;4973549;28;20215;-57
2022/02/03 14:46:45;;;;;;;13.20;6.43;;;9.90;99.90;;;;;;4973381;28;20177;-57
2022/02/03 14:49:10;;;;;;;8.10;4.90;;;9.80;99.90;;;;;;4973091;28;20185;-55
2022/02/03 14:52:11;;;;;;;8.60;5.43;;;9.70;99.90;;;;;;4973507;28;20182;-55
2022/02/03 14:59:35;;;;;;;10.40;6.03;;;9.60;99.90;;;;;;4973370;28;20686;-51
2022/02/03 15:02:07;;;;;;;10.77;5.57;;;9.50;99.90;;;;;;4973248;28;20202;-57
2022/02/03 15:04:34;;;;;;;9.53;5.60;;;9.50;99.90;;;;;;4972854;28;20194;-54
2022/02/03 15:07:03;;;;;;;9.20;5.57;;;9.40;99.90;;;;;;4973327;28;20170;-52
2022/02/03 15:10:02;;;;;;;12.53;6.33;;;9.40;99.90;;;;;;4973107;28;20659;-54
2022/02/03 15:12:37;;;;;;;10.23;5.47;;;9.30;99.90;;;;;;4971747;28;20213;-57
2022/02/03 15:15:05;;;;;;;9.60;5.07;;;9.10;99.90;;;;;;4973180;28;20198;-55
2022/02/03 15:17:35;;;;;;;8.67;5.57;;;9.00;99.90;;;;;;4973194;28;20288;-54
2022/02/03 15:20:01;;;;;;;8.20;5.13;;;8.80;99.90;;;;;;4973016;28;20173;-51
2022/02/03 15:22:26;;;;;;;12.37;5.93;;;8.70;99.90;;;;;;4973085;28;20173;-51
2022/02/03 15:24:52;;;;;;;10.47;5.93;;;8.70;99.90;;;;;;4973162;28;20280;-54
2022/02/03 15:27:18;;;;;;;9.70;6.10;;;8.60;99.90;;;;;;4973180;28;20544;-50
2022/02/03 15:29:47;;;;;;;11.07;6.33;;;8.60;99.90;;;;;;4973136;28;20178;-51
2022/02/03 15:32:13;;;;;;;9.73;6.53;;;8.60;99.90;;;;;;4972867;28;20718;-55
2022/02/03 15:34:38;;;;;;;11.57;7.17;;;8.60;99.90;;;;;;4972717;28;20264;-56
2022/02/03 15:37:11;;;;;;;12.80;6.47;;;8.60;99.90;;;;;;4972819;28;20185;-54
2022/02/03 15:39:47;;;;;;;8.67;5.60;;;8.50;99.90;;;;;;4972753;28;20691;-53
2022/02/03 15:42:13;;;;;;;11.40;5.33;;;8.40;99.90;;;;;;4973693;28;20172;-51
2022/02/03 15:44:42;;;;;;;10.10;5.53;;;8.30;99.90;;;;;;4976725;28;20190;-53
2022/02/03 15:47:18;;;;;;;12.03;5.87;;;8.30;99.90;;;;;;4976822;28;20170;-55
2022/02/03 16:14:36;;;;;;;10.33;5.90;;;8.40;99.90;;;;;;4976604;28;20216;-52
2022/02/03 16:18:50;;;;;;;8.87;5.70;;;8.40;99.90;;;;;;4976040;28;20205;-51
2022/02/03 16:21:35;;;;;;;9.57;5.73;;;8.30;99.90;;;;;;4976072;28;20179;-51
2022/02/03 16:24:20;;;;;;;11.40;6.40;;;8.20;99.90;;;;;;4976168;28;20196;-51
2022/02/03 16:40:43;;;;;;;6.27;4.90;;;8.30;99.90;;;;;;4975885;28;20236;-51
2022/02/03 16:50:20;;;;;;;17.80;12.30;;;8.10;99.90;;;;;;4975808;28;20224;-52
2022/02/03 16:54:19;;;;;;;12.20;7.40;;;8.10;99.90;;;;;;4974707;28;20201;-52
2022/02/03 16:56:48;;;;;;;12.50;9.37;;;8.10;99.90;;;;;;4975388;28;20190;-51
2022/02/03 16:59:14;;;;;;;15.43;7.67;;;8.10;99.90;;;;;;4975204;28;20240;-52
2022/02/03 17:01:39;;;;;;;11.93;8.00;;;8.10;99.90;;;;;;4975430;28;20190;-54
2022/02/03 17:04:05;;;;;;;13.50;7.60;;;8.10;99.90;;;;;;4975346;28;20571;-52
2022/02/03 17:06:30;;;;;;;10.90;7.50;;;8.10;99.90;;;;;;4975089;28;20171;-56
2022/02/03 17:08:56;;;;;;;17.53;12.57;;;8.20;99.90;;;;;;4973804;28;20767;-52
2022/02/03 17:11:21;;;;;;;20.33;15.17;;;8.20;99.90;;;;;;4975069;28;20614;-52
2022/02/03 17:13:47;;;;;;;17.27;12.37;;;8.30;99.90;;;;;;4974907;28;20606;-53
2022/02/03 17:16:17;;;;;;;19.70;14.47;;;8.30;99.90;;;;;;4974855;28;20240;-52
2022/02/03 17:18:43;;;;;;;28.07;22.30;;;8.30;99.90;;;;;;4973100;28;20266;-55
2022/02/03 17:21:08;;;;;;;15.37;11.43;;;8.60;99.90;;;;;;4973417;28;20177;-53
2022/02/03 17:23:34;;;;;;;14.93;10.30;;;8.40;99.90;;;;;;4973359;28;20193;-55
2022/02/03 17:26:13;;;;;;;16.30;10.03;;;8.40;99.90;;;;;;4973173;28;20236;-53
2022/02/03 17:28:52;;;;;;;15.57;12.50;;;8.40;99.90;;;;;;4973108;28;20788;-55
2022/02/03 18:03:59;;;;;;;10.47;7.63;;;7.80;99.90;;;;;;4974254;28;20192;-56
2022/02/03 18:06:57;;;;;;;10.03;7.47;;;7.60;99.90;;;;;;4974186;28;20173;-58
2022/02/03 18:09:35;;;;;;;12.70;9.63;;;7.70;99.90;;;;;;4973823;28;20190;-57
2022/02/03 18:17:17;;;;;;;18.07;11.23;;;7.70;99.90;;;;;;4974165;28;20206;-53
2022/02/03 18:25:55;;;;;;;13.77;9.67;;;7.90;99.90;;;;;;4974247;28;20260;-54
2022/02/03 18:31:04;;;;;;;13.53;10.13;;;7.90;99.90;;;;;;4974242;28;20224;-56
2022/02/03 18:55:05;;;;;;;15.83;10.30;;;7.60;99.90;;;;;;4972968;28;20193;-60
2022/02/03 19:02:59;;;;;;;15.13;9.60;;;7.60;99.90;;;;;;4973839;28;20729;-52
2022/02/03 19:20:56;;;;;;;16.00;9.77;;;7.50;99.90;;;;;;4981425;28;20182;-56
2022/02/03 20:05:19;;;;;;;18.37;12.83;;;7.00;99.90;;;;;;4983004;28;20197;-54
2022/02/03 20:07:54;;;;;;;18.33;13.43;;;7.00;99.90;;;;;;4982965;28;20178;-58
2022/02/03 20:10:28;;;;;;;27.77;18.63;;;7.00;99.90;;;;;;4982692;28;20179;-54
2022/02/03 20:12:54;;;;;;;17.90;12.77;;;7.00;99.90;;;;;;4982795;28;20169;-56
2022/02/03 20:15:22;;;;;;;19.47;14.53;;;7.00;99.90;;;;;;4982336;28;20678;-54
2022/02/03 20:17:48;;;;;;;20.40;12.33;;;7.00;99.90;;;;;;4980643;28;20200;-53
2022/02/03 20:20:13;;;;;;;18.73;13.50;;;7.00;99.90;;;;;;4964715;28;20260;-57
2022/02/03 20:22:40;;;;;;;14.60;10.03;;;7.00;99.90;;;;;;4982333;28;20181;-56
2022/02/03 20:25:10;;;;;;;19.43;13.30;;;6.90;99.90;;;;;;4980395;28;20201;-57
2022/02/03 20:27:36;;;;;;;14.63;9.80;;;6.90;99.90;;;;;;4981639;28;20224;-55
2022/02/03 20:30:05;;;;;;;16.30;10.00;;;7.00;99.90;;;;;;4984317;28;20178;-57
2022/02/03 20:32:31;;;;;;;15.93;9.87;;;7.00;99.90;;;;;;4984672;28;20182;-54
2022/02/03 20:34:57;;;;;;;16.60;11.43;;;7.00;99.90;;;;;;4985077;28;20617;-56
2022/02/03 20:37:23;;;;;;;20.10;13.47;;;7.00;99.90;;;;;;4986240;28;20207;-56
2022/02/03 20:39:49;;;;;;;18.80;13.10;;;6.90;99.90;;;;;;4984100;28;20170;-56
2022/02/03 20:42:16;;;;;;;16.80;11.67;;;6.90;99.90;;;;;;4985318;28;20173;-57
2022/02/03 20:44:49;;;;;;;12.10;8.50;;;6.90;99.90;;;;;;4968007;28;20193;-54
2022/02/03 20:47:15;;;;;;;11.97;8.70;;;6.90;99.90;;;;;;4985125;28;20572;-56
2022/02/03 20:49:42;;;;;;;15.47;10.70;;;6.80;99.90;;;;;;4984087;28;20177;-55
2022/02/03 20:52:08;;;;;;;31.77;22.30;;;6.80;99.90;;;;;;4985762;28;20176;-56
2022/02/03 20:54:34;;;;;;;63.67;45.23;;;6.70;99.90;;;;;;4984384;28;20197;-52
2022/02/03 20:57:00;;;;;;;64.93;46.70;;;6.70;99.90;;;;;;4984272;28;20169;-53
2022/02/03 20:59:31;;;;;;;29.03;23.73;;;6.80;99.90;;;;;;4985383;28;20212;-58
2022/02/03 21:02:01;;;;;;;35.77;26.87;;;6.70;99.90;;;;;;4984843;28;20181;-55
2022/02/03 21:04:55;;;;;;;21.80;16.00;;;6.70;99.90;;;;;;4983467;28;20321;-55
2022/02/03 21:07:14;;;;;;;16.73;11.47;;;6.70;99.90;;;;;;4985119;28;20181;-62
2022/02/03 21:09:43;;;;;;;13.87;12.40;;;6.70;99.90;;;;;;4984975;28;20166;-55
2022/02/03 21:12:10;;;;;;;17.63;14.80;;;6.70;99.90;;;;;;4985671;28;20200;-58
2022/02/03 21:14:35;;;;;;;23.40;20.47;;;6.60;99.90;;;;;;4984197;28;20284;-51
2022/02/03 21:17:01;;;;;;;25.50;20.30;;;6.60;99.90;;;;;;4983895;28;20624;-58
2022/02/03 21:19:27;;;;;;;23.93;19.93;;;6.60;99.90;;;;;;4985251;28;20288;-52
2022/02/03 21:21:52;;;;;;;19.20;16.10;;;6.50;99.90;;;;;;4985798;28;20192;-53
2022/02/03 21:24:18;;;;;;;16.53;12.27;;;6.50;99.90;;;;;;4984971;28;20206;-53
2022/02/03 21:26:44;;;;;;;15.03;10.50;;;6.60;99.90;;;;;;4985611;28;20263;-53
2022/02/03 21:29:11;;;;;;;12.63;9.23;;;6.50;99.90;;;;;;4985330;28;20169;-53
2022/02/03 21:31:36;;;;;;;12.30;8.93;;;6.50;99.90;;;;;;4984202;28;20217;-52
2022/02/03 21:34:02;;;;;;;16.17;10.30;;;6.40;99.90;;;;;;4983307;28;20217;-54
2022/02/03 21:36:35;;;;;;;12.93;10.80;;;6.40;99.90;;;;;;4967650;28;20662;-53
2022/02/03 21:39:00;;;;;;;15.93;12.30;;;6.50;99.90;;;;;;4984543;28;20256;-55
2022/02/03 21:41:26;;;;;;;15.33;11.53;;;6.50;99.90;;;;;;4982589;28;20558;-54
2022/02/03 21:43:51;;;;;;;15.10;11.20;;;6.50;99.90;;;;;;4967146;28;20193;-53
2022/02/03 21:46:17;;;;;;;15.07;10.80;;;6.50;99.90;;;;;;4983997;28;20178;-55
2022/02/03 21:48:49;;;;;;;12.73;10.60;;;6.50;99.90;;;;;;4983061;28;20196;-54
2022/02/03 21:51:20;;;;;;;16.60;11.57;;;6.50;99.90;;;;;;4983945;28;20182;-54
2022/02/03 21:53:45;;;;;;;12.73;9.63;;;6.50;99.90;;;;;;4981761;28;20240;-56
2022/02/03 21:56:11;;;;;;;14.93;11.13;;;6.40;99.90;;;;;;4984412;28;20268;-52
2022/02/03 21:58:36;;;;;;;14.80;11.23;;;6.40;99.90;;;;;;4983508;28;20667;-54
2022/02/03 22:01:02;;;;;;;14.30;10.60;;;6.40;99.90;;;;;;4982903;28;20177;-54
2022/02/03 22:03:28;;;;;;;17.43;11.40;;;6.40;99.90;;;;;;4984458;28;20558;-57
2022/02/03 22:05:56;;;;;;;15.27;10.17;;;6.40;99.90;;;;;;4983366;28;20170;-53
2022/02/03 22:08:21;;;;;;;13.40;10.50;;;6.30;99.90;;;;;;4982685;28;20189;-51
2022/02/03 22:10:47;;;;;;;13.97;9.77;;;6.30;99.90;;;;;;4984485;28;20293;-55
2022/02/03 22:13:13;;;;;;;14.90;11.10;;;6.10;99.90;;;;;;4982924;28;20571;-55
2022/02/03 22:15:40;;;;;;;12.90;10.00;;;6.10;99.90;;;;;;4982787;28;20177;-53
2022/02/03 22:18:11;;;;;;;16.33;11.47;;;6.10;99.90;;;;;;4984179;28;20211;-54
2022/02/03 22:20:42;;;;;;;15.30;11.63;;;6.00;99.90;;;;;;4983554;28;20224;-51
2022/02/03 22:28:33;;;;;;;16.83;13.57;;;6.00;99.90;;;;;;4982700;28;20209;-56
2022/02/03 22:44:28;;;;;;;20.73;15.30;;;5.80;99.90;;;;;;4983865;28;20208;-52
2022/02/03 22:47:20;;;;;;;17.60;14.03;;;5.80;99.90;;;;;;4982284;28;20628;-54
2022/02/03 22:49:46;;;;;;;20.00;15.37;;;5.80;99.90;;;;;;4983639;28;20185;-55
2022/02/03 22:52:12;;;;;;;17.90;13.33;;;5.80;99.90;;;;;;4981475;28;20524;-54
2022/02/03 22:54:39;;;;;;;16.90;13.27;;;5.80;99.90;;;;;;4982303;28;20188;-56
2022/02/03 22:57:05;;;;;;;17.60;12.87;;;5.80;99.90;;;;;;4983692;28;20638;-53
2022/02/03 23:02:05;;;;;;;13.47;10.97;;;5.70;99.90;;;;;;4981730;28;20165;-55
2022/02/03 23:04:31;;;;;;;17.63;11.90;;;5.70;99.90;;;;;;4983150;28;20231;-50
2022/02/03 23:07:07;;;;;;;14.17;10.90;;;5.60;99.90;;;;;;4982654;28;20178;-52
2022/02/03 23:09:49;;;;;;;14.07;11.70;;;5.60;99.90;;;;;;4964350;28;20554;-56
2022/02/03 23:12:28;;;;;;;18.00;12.37;;;5.60;99.90;;;;;;4973455;28;20182;-58
2022/02/03 23:15:27;;;;;;;17.07;11.67;;;5.50;99.90;;;;;;4955651;28;20670;-53
2022/02/03 23:17:55;;;;;;;17.77;11.13;;;5.50;99.90;;;;;;4972871;28;20268;-51
2022/02/03 23:20:27;;;;;;;15.17;12.00;;;5.50;99.90;;;;;;4973083;28;21341;-55
2022/02/03 23:22:53;;;;;;;17.47;12.37;;;5.50;99.90;;;;;;4973092;28;20189;-53
2022/02/03 23:25:21;;;;;;;17.67;12.33;;;5.50;99.90;;;;;;4972986;28;20170;-54
2022/02/03 23:30:17;;;;;;;17.50;11.73;;;5.40;99.90;;;;;;4973014;28;20221;-57
2022/02/03 23:32:43;;;;;;;13.57;10.83;;;5.50;99.90;;;;;;4972840;28;20194;-51
2022/02/03 23:37:48;;;;;;;12.63;9.83;;;5.40;99.90;;;;;;4972900;28;20220;-55
2022/02/03 23:40:57;;;;;;;13.53;9.33;;;5.40;99.90;;;;;;4972794;28;20546;-52
